sensor_id;sensor_type;location;lat;lon;timestamp;temperature;humidity
49132;DHT22;35149;51.196;6.204;2023-08-01T00:00:03;20.60;81.60
49132;DHT22;35149;51.196;6.204;2023-08-01T00:02:37;20.60;81.40
49132;DHT22;35149;51.196;6.204;2023-08-01T00:05:14;20.60;81.30
49132;DHT22;35149;51.196;6.204;2023-08-01T00:07:43;20.60;81.30
49132;DHT22;35149;51.196;6.204;2023-08-01T00:10:10;20.60;81.20
49132;DHT22;35149;51.196;6.204;2023-08-01T00:12:42;20.60;81.10
49132;DHT22;35149;51.196;6.204;2023-08-01T00:15:09;20.60;81.00
49132;DHT22;35149;51.196;6.204;2023-08-01T00:17:40;20.50;80.90
49132;DHT22;35149;51.196;6.204;2023-08-01T00:20:10;20.50;81.20
49132;DHT22;35149;51.196;6.204;2023-08-01T00:22:39;20.50;81.00
49132;DHT22;35149;51.196;6.204;2023-08-01T00:25:06;20.50;81.30
49132;DHT22;35149;51.196;6.204;2023-08-01T00:27:37;20.40;81.20
49132;DHT22;35149;51.196;6.204;2023-08-01T00:30:07;20.40;81.20
49132;DHT22;35149;51.196;6.204;2023-08-01T00:32:35;20.40;81.30
49132;DHT22;35149;51.196;6.204;2023-08-01T00:35:04;20.40;81.30
49132;DHT22;35149;51.196;6.204;2023-08-01T00:37:33;20.40;81.30
49132;DHT22;35149;51.196;6.204;2023-08-01T00:40:01;20.40;81.40
49132;DHT22;35149;51.196;6.204;2023-08-01T00:42:30;20.40;81.60
49132;DHT22;35149;51.196;6.204;2023-08-01T00:44:57;20.40;81.70
49132;DHT22;35149;51.196;6.204;2023-08-01T00:47:26;20.40;81.70
49132;DHT22;35149;51.196;6.204;2023-08-01T00:49:55;20.40;81.80
49132;DHT22;35149;51.196;6.204;2023-08-01T00:52:26;20.30;81.70
49132;DHT22;35149;51.196;6.204;2023-08-01T00:54:56;20.40;81.80
49132;DHT22;35149;51.196;6.204;2023-08-01T00:57:23;20.40;81.80
49132;DHT22;35149;51.196;6.204;2023-08-01T00:59:54;20.30;81.80
49132;DHT22;35149;51.196;6.204;2023-08-01T01:02:20;20.40;82.00
49132;DHT22;35149;51.196;6.204;2023-08-01T01:04:50;20.40;81.90
49132;DHT22;35149;51.196;6.204;2023-08-01T01:07:19;20.40;82.10
49132;DHT22;35149;51.196;6.204;2023-08-01T01:09:47;20.40;82.00
49132;DHT22;35149;51.196;6.204;2023-08-01T01:12:17;20.40;81.80
49132;DHT22;35149;51.196;6.204;2023-08-01T01:14:44;20.40;81.80
49132;DHT22;35149;51.196;6.204;2023-08-01T01:17:13;20.30;81.50
49132;DHT22;35149;51.196;6.204;2023-08-01T01:19:39;20.40;81.40
49132;DHT22;35149;51.196;6.204;2023-08-01T01:22:16;20.30;81.40
49132;DHT22;35149;51.196;6.204;2023-08-01T01:24:44;20.30;81.70
49132;DHT22;35149;51.196;6.204;2023-08-01T01:27:12;20.40;81.30
49132;DHT22;35149;51.196;6.204;2023-08-01T01:29:40;20.30;81.10
49132;DHT22;35149;51.196;6.204;2023-08-01T01:32:09;20.30;81.20
49132;DHT22;35149;51.196;6.204;2023-08-01T01:34:38;20.30;81.00
49132;DHT22;35149;51.196;6.204;2023-08-01T01:37:06;20.30;81.10
49132;DHT22;35149;51.196;6.204;2023-08-01T01:39:36;20.30;81.30
49132;DHT22;35149;51.196;6.204;2023-08-01T01:42:02;20.30;81.20
49132;DHT22;35149;51.196;6.204;2023-08-01T01:44:34;20.20;81.10
49132;DHT22;35149;51.196;6.204;2023-08-01T01:47:06;20.20;81.30
49132;DHT22;35149;51.196;6.204;2023-08-01T01:49:35;20.20;81.40
49132;DHT22;35149;51.196;6.204;2023-08-01T01:52:04;20.20;81.40
49132;DHT22;35149;51.196;6.204;2023-08-01T01:54:37;20.20;81.30
49132;DHT22;35149;51.196;6.204;2023-08-01T01:57:06;20.20;81.10
49132;DHT22;35149;51.196;6.204;2023-08-01T01:59:33;20.20;80.80
49132;DHT22;35149;51.196;6.204;2023-08-01T02:02:10;20.20;80.90
49132;DHT22;35149;51.196;6.204;2023-08-01T02:04:37;20.20;80.70
49132;DHT22;35149;51.196;6.204;2023-08-01T02:07:09;20.20;80.50
49132;DHT22;35149;51.196;6.204;2023-08-01T02:09:42;20.20;80.50
49132;DHT22;35149;51.196;6.204;2023-08-01T02:12:14;20.20;80.50
49132;DHT22;35149;51.196;6.204;2023-08-01T02:14:43;20.10;80.20
49132;DHT22;35149;51.196;6.204;2023-08-01T02:17:13;20.10;80.00
49132;DHT22;35149;51.196;6.204;2023-08-01T02:19:40;20.10;80.00
49132;DHT22;35149;51.196;6.204;2023-08-01T02:22:07;20.10;79.70
49132;DHT22;35149;51.196;6.204;2023-08-01T02:24:37;20.10;79.40
49132;DHT22;35149;51.196;6.204;2023-08-01T02:27:04;20.10;79.40
49132;DHT22;35149;51.196;6.204;2023-08-01T02:29:36;20.10;79.30
49132;DHT22;35149;51.196;6.204;2023-08-01T02:32:06;20.00;78.60
49132;DHT22;35149;51.196;6.204;2023-08-01T02:34:33;20.00;78.70
49132;DHT22;35149;51.196;6.204;2023-08-01T02:37:07;20.00;78.50
49132;DHT22;35149;51.196;6.204;2023-08-01T02:39:35;20.00;78.40
49132;DHT22;35149;51.196;6.204;2023-08-01T02:42:04;20.00;78.30
49132;DHT22;35149;51.196;6.204;2023-08-01T02:44:33;19.90;78.20
49132;DHT22;35149;51.196;6.204;2023-08-01T02:47:03;19.90;78.20
49132;DHT22;35149;51.196;6.204;2023-08-01T02:49:37;19.90;78.20
49132;DHT22;35149;51.196;6.204;2023-08-01T02:52:05;19.90;78.40
49132;DHT22;35149;51.196;6.204;2023-08-01T02:54:34;19.80;78.10
49132;DHT22;35149;51.196;6.204;2023-08-01T02:57:01;19.80;78.10
49132;DHT22;35149;51.196;6.204;2023-08-01T02:59:27;19.80;78.00
49132;DHT22;35149;51.196;6.204;2023-08-01T03:01:59;19.80;78.00
49132;DHT22;35149;51.196;6.204;2023-08-01T03:04:26;19.70;78.00
49132;DHT22;35149;51.196;6.204;2023-08-01T03:07:11;19.70;77.90
49132;DHT22;35149;51.196;6.204;2023-08-01T03:09:37;19.70;77.70
49132;DHT22;35149;51.196;6.204;2023-08-01T03:12:04;19.70;77.60
49132;DHT22;35149;51.196;6.204;2023-08-01T03:14:36;19.70;77.40
49132;DHT22;35149;51.196;6.204;2023-08-01T03:17:03;19.60;77.40
49132;DHT22;35149;51.196;6.204;2023-08-01T03:19:29;19.60;77.50
49132;DHT22;35149;51.196;6.204;2023-08-01T03:21:59;19.60;77.40
49132;DHT22;35149;51.196;6.204;2023-08-01T03:24:26;19.60;77.50
49132;DHT22;35149;51.196;6.204;2023-08-01T03:26:53;19.50;77.40
49132;DHT22;35149;51.196;6.204;2023-08-01T03:29:21;19.50;77.20
49132;DHT22;35149;51.196;6.204;2023-08-01T03:31:47;19.50;76.90
49132;DHT22;35149;51.196;6.204;2023-08-01T03:34:15;19.50;76.80
49132;DHT22;35149;51.196;6.204;2023-08-01T03:36:47;19.40;76.50
49132;DHT22;35149;51.196;6.204;2023-08-01T03:39:16;19.40;76.50
49132;DHT22;35149;51.196;6.204;2023-08-01T03:41:45;19.30;76.60
49132;DHT22;35149;51.196;6.204;2023-08-01T03:44:14;19.30;77.50
49132;DHT22;35149;51.196;6.204;2023-08-01T03:46:56;19.30;77.00
49132;DHT22;35149;51.196;6.204;2023-08-01T03:49:22;19.30;77.00
49132;DHT22;35149;51.196;6.204;2023-08-01T03:51:49;19.30;77.20
49132;DHT22;35149;51.196;6.204;2023-08-01T03:54:19;19.20;77.30
49132;DHT22;35149;51.196;6.204;2023-08-01T03:56:50;19.30;77.20
49132;DHT22;35149;51.196;6.204;2023-08-01T03:59:18;19.30;77.20
49132;DHT22;35149;51.196;6.204;2023-08-01T04:01:50;19.30;77.30
49132;DHT22;35149;51.196;6.204;2023-08-01T04:04:17;19.30;77.30
49132;DHT22;35149;51.196;6.204;2023-08-01T04:06:43;19.30;77.10
49132;DHT22;35149;51.196;6.204;2023-08-01T04:09:17;19.30;77.20
49132;DHT22;35149;51.196;6.204;2023-08-01T04:11:44;19.30;77.20
49132;DHT22;35149;51.196;6.204;2023-08-01T04:14:13;19.30;77.40
49132;DHT22;35149;51.196;6.204;2023-08-01T04:16:39;19.30;77.30
49132;DHT22;35149;51.196;6.204;2023-08-01T04:19:14;19.30;77.30
49132;DHT22;35149;51.196;6.204;2023-08-01T04:21:43;19.30;77.30
49132;DHT22;35149;51.196;6.204;2023-08-01T04:24:10;19.30;77.40
49132;DHT22;35149;51.196;6.204;2023-08-01T04:26:39;19.30;77.20
49132;DHT22;35149;51.196;6.204;2023-08-01T04:29:06;19.30;77.30
49132;DHT22;35149;51.196;6.204;2023-08-01T04:31:34;19.30;77.40
49132;DHT22;35149;51.196;6.204;2023-08-01T04:34:05;19.30;77.20
49132;DHT22;35149;51.196;6.204;2023-08-01T04:36:36;19.30;77.30
49132;DHT22;35149;51.196;6.204;2023-08-01T04:39:03;19.30;77.20
49132;DHT22;35149;51.196;6.204;2023-08-01T04:41:30;19.30;77.30
49132;DHT22;35149;51.196;6.204;2023-08-01T04:43:56;19.30;77.20
49132;DHT22;35149;51.196;6.204;2023-08-01T04:46:23;19.30;77.30
49132;DHT22;35149;51.196;6.204;2023-08-01T04:48:50;19.30;77.40
49132;DHT22;35149;51.196;6.204;2023-08-01T04:51:16;19.30;77.40
49132;DHT22;35149;51.196;6.204;2023-08-01T04:53:43;19.30;77.50
49132;DHT22;35149;51.196;6.204;2023-08-01T04:56:10;19.30;77.40
49132;DHT22;35149;51.196;6.204;2023-08-01T04:58:37;19.30;77.40
49132;DHT22;35149;51.196;6.204;2023-08-01T05:01:03;19.30;77.30
49132;DHT22;35149;51.196;6.204;2023-08-01T05:03:30;19.30;77.30
49132;DHT22;35149;51.196;6.204;2023-08-01T05:05:57;19.30;77.10
49132;DHT22;35149;51.196;6.204;2023-08-01T05:08:24;19.30;77.10
49132;DHT22;35149;51.196;6.204;2023-08-01T05:10:50;19.30;77.00
49132;DHT22;35149;51.196;6.204;2023-08-01T05:13:17;19.30;76.90
49132;DHT22;35149;51.196;6.204;2023-08-01T05:15:45;19.30;76.80
49132;DHT22;35149;51.196;6.204;2023-08-01T05:18:15;19.30;76.80
49132;DHT22;35149;51.196;6.204;2023-08-01T05:20:42;19.30;76.80
49132;DHT22;35149;51.196;6.204;2023-08-01T05:23:09;19.30;76.70
49132;DHT22;35149;51.196;6.204;2023-08-01T05:25:36;19.30;76.50
49132;DHT22;35149;51.196;6.204;2023-08-01T05:28:02;19.30;76.40
49132;DHT22;35149;51.196;6.204;2023-08-01T05:30:29;19.30;76.30
49132;DHT22;35149;51.196;6.204;2023-08-01T05:33:01;19.30;76.50
49132;DHT22;35149;51.196;6.204;2023-08-01T05:35:28;19.30;76.80
49132;DHT22;35149;51.196;6.204;2023-08-01T05:37:54;19.30;76.90
49132;DHT22;35149;51.196;6.204;2023-08-01T05:40:21;19.40;76.90
49132;DHT22;35149;51.196;6.204;2023-08-01T05:42:47;19.40;76.90
49132;DHT22;35149;51.196;6.204;2023-08-01T05:45:14;19.40;76.80
49132;DHT22;35149;51.196;6.204;2023-08-01T05:47:41;19.50;76.70
49132;DHT22;35149;51.196;6.204;2023-08-01T05:50:08;19.50;76.70
49132;DHT22;35149;51.196;6.204;2023-08-01T05:52:35;19.50;76.60
49132;DHT22;35149;51.196;6.204;2023-08-01T05:55:02;19.60;76.50
49132;DHT22;35149;51.196;6.204;2023-08-01T05:57:29;19.60;76.30
49132;DHT22;35149;51.196;6.204;2023-08-01T05:59:56;19.60;76.20
49132;DHT22;35149;51.196;6.204;2023-08-01T06:02:23;19.70;76.30
49132;DHT22;35149;51.196;6.204;2023-08-01T06:04:50;19.60;76.00
49132;DHT22;35149;51.196;6.204;2023-08-01T06:07:16;19.70;75.80
49132;DHT22;35149;51.196;6.204;2023-08-01T06:09:50;19.70;75.90
49132;DHT22;35149;51.196;6.204;2023-08-01T06:12:18;19.70;76.10
49132;DHT22;35149;51.196;6.204;2023-08-01T06:14:46;19.70;76.10
49132;DHT22;35149;51.196;6.204;2023-08-01T06:17:13;19.80;76.00
49132;DHT22;35149;51.196;6.204;2023-08-01T06:19:39;19.80;75.80
49132;DHT22;35149;51.196;6.204;2023-08-01T06:22:06;19.90;75.80
49132;DHT22;35149;51.196;6.204;2023-08-01T06:24:33;19.90;75.70
49132;DHT22;35149;51.196;6.204;2023-08-01T06:27:00;20.00;75.60
49132;DHT22;35149;51.196;6.204;2023-08-01T06:29:27;20.00;75.60
49132;DHT22;35149;51.196;6.204;2023-08-01T06:31:53;20.00;75.50
49132;DHT22;35149;51.196;6.204;2023-08-01T06:34:20;20.10;75.40
49132;DHT22;35149;51.196;6.204;2023-08-01T06:36:47;20.20;75.70
49132;DHT22;35149;51.196;6.204;2023-08-01T06:39:13;20.30;75.40
49132;DHT22;35149;51.196;6.204;2023-08-01T06:41:40;20.30;75.10
49132;DHT22;35149;51.196;6.204;2023-08-01T06:44:07;20.40;74.60
49132;DHT22;35149;51.196;6.204;2023-08-01T06:46:33;20.40;74.40
49132;DHT22;35149;51.196;6.204;2023-08-01T06:49:01;20.50;74.10
49132;DHT22;35149;51.196;6.204;2023-08-01T06:51:27;20.60;73.50
49132;DHT22;35149;51.196;6.204;2023-08-01T06:53:54;20.60;73.00
49132;DHT22;35149;51.196;6.204;2023-08-01T06:56:21;20.60;72.90
49132;DHT22;35149;51.196;6.204;2023-08-01T06:58:48;20.60;72.70
49132;DHT22;35149;51.196;6.204;2023-08-01T07:01:15;20.60;72.50
49132;DHT22;35149;51.196;6.204;2023-08-01T07:03:42;20.60;72.70
49132;DHT22;35149;51.196;6.204;2023-08-01T07:06:08;20.60;72.40
49132;DHT22;35149;51.196;6.204;2023-08-01T07:08:36;20.70;72.40
49132;DHT22;35149;51.196;6.204;2023-08-01T07:11:03;20.70;72.40
49132;DHT22;35149;51.196;6.204;2023-08-01T07:13:30;20.70;72.40
49132;DHT22;35149;51.196;6.204;2023-08-01T07:15:56;20.70;72.10
49132;DHT22;35149;51.196;6.204;2023-08-01T07:18:23;20.70;72.20
49132;DHT22;35149;51.196;6.204;2023-08-01T07:21:02;20.70;72.00
49132;DHT22;35149;51.196;6.204;2023-08-01T07:23:30;20.70;71.80
49132;DHT22;35149;51.196;6.204;2023-08-01T07:25:57;20.80;71.90
49132;DHT22;35149;51.196;6.204;2023-08-01T07:28:23;20.80;71.70
49132;DHT22;35149;51.196;6.204;2023-08-01T07:31:05;20.80;71.60
49132;DHT22;35149;51.196;6.204;2023-08-01T07:33:33;20.80;71.10
49132;DHT22;35149;51.196;6.204;2023-08-01T07:36:00;20.90;71.30
49132;DHT22;35149;51.196;6.204;2023-08-01T07:38:27;20.90;71.30
49132;DHT22;35149;51.196;6.204;2023-08-01T07:40:55;20.90;71.10
49132;DHT22;35149;51.196;6.204;2023-08-01T07:43:21;20.90;71.10
49132;DHT22;35149;51.196;6.204;2023-08-01T07:45:49;20.90;71.20
49132;DHT22;35149;51.196;6.204;2023-08-01T07:48:21;20.90;71.10
49132;DHT22;35149;51.196;6.204;2023-08-01T07:50:48;21.00;71.00
49132;DHT22;35149;51.196;6.204;2023-08-01T07:53:14;21.10;70.70
49132;DHT22;35149;51.196;6.204;2023-08-01T07:55:41;21.10;70.80
49132;DHT22;35149;51.196;6.204;2023-08-01T07:58:08;21.20;70.70
49132;DHT22;35149;51.196;6.204;2023-08-01T08:00:35;21.20;70.90
49132;DHT22;35149;51.196;6.204;2023-08-01T08:03:02;21.30;70.60
49132;DHT22;35149;51.196;6.204;2023-08-01T08:05:29;21.30;70.20
49132;DHT22;35149;51.196;6.204;2023-08-01T08:07:55;21.40;69.80
49132;DHT22;35149;51.196;6.204;2023-08-01T08:10:22;21.40;69.50
49132;DHT22;35149;51.196;6.204;2023-08-01T08:12:49;21.40;69.20
49132;DHT22;35149;51.196;6.204;2023-08-01T08:15:17;21.50;68.80
49132;DHT22;35149;51.196;6.204;2023-08-01T08:17:44;21.50;68.60
49132;DHT22;35149;51.196;6.204;2023-08-01T08:20:10;21.50;68.70
49132;DHT22;35149;51.196;6.204;2023-08-01T08:22:37;21.50;69.10
49132;DHT22;35149;51.196;6.204;2023-08-01T08:25:04;21.60;69.10
49132;DHT22;35149;51.196;6.204;2023-08-01T08:27:30;21.60;68.80
49132;DHT22;35149;51.196;6.204;2023-08-01T08:29:57;21.70;68.60
49132;DHT22;35149;51.196;6.204;2023-08-01T08:32:24;21.80;68.50
49132;DHT22;35149;51.196;6.204;2023-08-01T08:34:51;21.80;68.00
49132;DHT22;35149;51.196;6.204;2023-08-01T08:37:17;21.80;68.10
49132;DHT22;35149;51.196;6.204;2023-08-01T08:39:44;21.90;67.60
49132;DHT22;35149;51.196;6.204;2023-08-01T08:42:11;21.90;67.30
49132;DHT22;35149;51.196;6.204;2023-08-01T08:44:43;21.90;67.10
49132;DHT22;35149;51.196;6.204;2023-08-01T08:47:11;21.90;67.30
49132;DHT22;35149;51.196;6.204;2023-08-01T08:49:40;22.00;68.00
49132;DHT22;35149;51.196;6.204;2023-08-01T08:52:07;22.00;67.70
49132;DHT22;35149;51.196;6.204;2023-08-01T08:54:35;22.00;67.60
49132;DHT22;35149;51.196;6.204;2023-08-01T08:57:05;22.20;68.20
49132;DHT22;35149;51.196;6.204;2023-08-01T08:59:33;22.20;67.60
49132;DHT22;35149;51.196;6.204;2023-08-01T09:02:02;22.30;68.00
49132;DHT22;35149;51.196;6.204;2023-08-01T09:04:33;22.40;67.50
49132;DHT22;35149;51.196;6.204;2023-08-01T09:07:02;22.50;66.80
49132;DHT22;35149;51.196;6.204;2023-08-01T09:09:34;22.60;66.00
49132;DHT22;35149;51.196;6.204;2023-08-01T09:12:01;22.60;65.20
49132;DHT22;35149;51.196;6.204;2023-08-01T09:14:28;22.70;65.60
49132;DHT22;35149;51.196;6.204;2023-08-01T09:16:55;22.70;65.20
49132;DHT22;35149;51.196;6.204;2023-08-01T09:19:31;22.70;64.90
49132;DHT22;35149;51.196;6.204;2023-08-01T09:21:58;22.80;65.20
49132;DHT22;35149;51.196;6.204;2023-08-01T09:24:25;22.80;64.20
49132;DHT22;35149;51.196;6.204;2023-08-01T09:26:52;23.00;64.20
49132;DHT22;35149;51.196;6.204;2023-08-01T09:29:20;22.90;64.20
49132;DHT22;35149;51.196;6.204;2023-08-01T09:31:47;23.00;64.40
49132;DHT22;35149;51.196;6.204;2023-08-01T09:34:21;23.00;64.00
49132;DHT22;35149;51.196;6.204;2023-08-01T09:36:49;23.10;64.00
49132;DHT22;35149;51.196;6.204;2023-08-01T09:39:20;23.20;63.70
49132;DHT22;35149;51.196;6.204;2023-08-01T09:42:01;23.30;62.10
49132;DHT22;35149;51.196;6.204;2023-08-01T09:44:29;23.40;62.90
49132;DHT22;35149;51.196;6.204;2023-08-01T09:46:56;23.40;63.70
49132;DHT22;35149;51.196;6.204;2023-08-01T09:49:23;23.50;62.50
49132;DHT22;35149;51.196;6.204;2023-08-01T09:51:51;23.50;62.10
49132;DHT22;35149;51.196;6.204;2023-08-01T09:54:18;23.60;61.50
49132;DHT22;35149;51.196;6.204;2023-08-01T09:56:50;23.50;60.80
49132;DHT22;35149;51.196;6.204;2023-08-01T09:59:22;23.60;60.80
49132;DHT22;35149;51.196;6.204;2023-08-01T10:01:53;23.60;60.30
49132;DHT22;35149;51.196;6.204;2023-08-01T10:04:25;23.60;60.90
49132;DHT22;35149;51.196;6.204;2023-08-01T10:07:08;23.60;60.30
49132;DHT22;35149;51.196;6.204;2023-08-01T10:09:36;23.70;59.60
49132;DHT22;35149;51.196;6.204;2023-08-01T10:12:05;23.60;60.90
49132;DHT22;35149;51.196;6.204;2023-08-01T10:14:32;23.70;59.90
49132;DHT22;35149;51.196;6.204;2023-08-01T10:16:59;23.70;59.60
49132;DHT22;35149;51.196;6.204;2023-08-01T10:19:26;23.60;59.40
49132;DHT22;35149;51.196;6.204;2023-08-01T10:21:53;23.60;59.30
49132;DHT22;35149;51.196;6.204;2023-08-01T10:24:23;23.60;58.70
49132;DHT22;35149;51.196;6.204;2023-08-01T10:26:51;23.50;58.90
49132;DHT22;35149;51.196;6.204;2023-08-01T10:29:17;23.50;58.90
49132;DHT22;35149;51.196;6.204;2023-08-01T10:31:54;23.50;59.30
49132;DHT22;35149;51.196;6.204;2023-08-01T10:34:21;23.60;59.40
49132;DHT22;35149;51.196;6.204;2023-08-01T10:36:57;23.60;59.20
49132;DHT22;35149;51.196;6.204;2023-08-01T10:39:26;23.70;58.40
49132;DHT22;35149;51.196;6.204;2023-08-01T10:42:04;23.70;59.40
49132;DHT22;35149;51.196;6.204;2023-08-01T10:44:31;23.80;58.50
49132;DHT22;35149;51.196;6.204;2023-08-01T10:47:02;23.80;59.40
49132;DHT22;35149;51.196;6.204;2023-08-01T10:49:43;23.80;58.60
49132;DHT22;35149;51.196;6.204;2023-08-01T10:52:21;23.80;58.40
49132;DHT22;35149;51.196;6.204;2023-08-01T10:55:03;23.70;59.10
49132;DHT22;35149;51.196;6.204;2023-08-01T10:57:37;23.40;59.80
49132;DHT22;35149;51.196;6.204;2023-08-01T11:00:05;23.00;62.30
49132;DHT22;35149;51.196;6.204;2023-08-01T11:02:36;22.50;62.50
49132;DHT22;35149;51.196;6.204;2023-08-01T11:05:05;22.00;63.90
49132;DHT22;35149;51.196;6.204;2023-08-01T11:07:33;21.50;65.60
49132;DHT22;35149;51.196;6.204;2023-08-01T11:10:11;21.10;67.40
49132;DHT22;35149;51.196;6.204;2023-08-01T11:12:42;20.70;70.60
49132;DHT22;35149;51.196;6.204;2023-08-01T11:15:14;20.50;71.70
49132;DHT22;35149;51.196;6.204;2023-08-01T11:17:42;20.30;74.10
49132;DHT22;35149;51.196;6.204;2023-08-01T11:20:11;20.20;75.40
49132;DHT22;35149;51.196;6.204;2023-08-01T11:22:49;20.10;75.90
49132;DHT22;35149;51.196;6.204;2023-08-01T11:25:15;20.10;77.30
49132;DHT22;35149;51.196;6.204;2023-08-01T11:27:43;20.00;77.90
49132;DHT22;35149;51.196;6.204;2023-08-01T11:30:10;20.00;78.90
49132;DHT22;35149;51.196;6.204;2023-08-01T11:32:37;20.00;78.40
49132;DHT22;35149;51.196;6.204;2023-08-01T11:35:05;20.00;78.70
49132;DHT22;35149;51.196;6.204;2023-08-01T11:37:32;20.00;78.70
49132;DHT22;35149;51.196;6.204;2023-08-01T11:40:00;19.90;78.10
49132;DHT22;35149;51.196;6.204;2023-08-01T11:42:30;19.80;77.50
49132;DHT22;35149;51.196;6.204;2023-08-01T11:45:13;19.80;78.30
49132;DHT22;35149;51.196;6.204;2023-08-01T11:47:45;19.70;78.70
49132;DHT22;35149;51.196;6.204;2023-08-01T11:50:13;19.60;79.30
49132;DHT22;35149;51.196;6.204;2023-08-01T11:52:40;19.60;79.50
49132;DHT22;35149;51.196;6.204;2023-08-01T11:55:07;19.60;80.00
49132;DHT22;35149;51.196;6.204;2023-08-01T11:57:34;19.50;80.10
49132;DHT22;35149;51.196;6.204;2023-08-01T12:00:01;19.60;80.40
49132;DHT22;35149;51.196;6.204;2023-08-01T12:02:37;19.50;80.90
49132;DHT22;35149;51.196;6.204;2023-08-01T12:05:04;19.60;81.60
49132;DHT22;35149;51.196;6.204;2023-08-01T12:07:31;19.60;81.90
49132;DHT22;35149;51.196;6.204;2023-08-01T12:09:59;19.60;82.80
49132;DHT22;35149;51.196;6.204;2023-08-01T12:12:27;19.70;83.10
49132;DHT22;35149;51.196;6.204;2023-08-01T12:14:54;19.70;83.40
49132;DHT22;35149;51.196;6.204;2023-08-01T12:17:25;19.80;83.70
49132;DHT22;35149;51.196;6.204;2023-08-01T12:19:52;20.00;84.70
49132;DHT22;35149;51.196;6.204;2023-08-01T12:22:19;20.00;84.40
49132;DHT22;35149;51.196;6.204;2023-08-01T12:24:45;20.20;84.40
49132;DHT22;35149;51.196;6.204;2023-08-01T12:27:12;20.20;84.70
49132;DHT22;35149;51.196;6.204;2023-08-01T12:29:39;20.40;84.40
49132;DHT22;35149;51.196;6.204;2023-08-01T12:32:06;20.50;84.40
49132;DHT22;35149;51.196;6.204;2023-08-01T12:34:35;20.60;85.20
49132;DHT22;35149;51.196;6.204;2023-08-01T12:37:02;20.70;84.70
49132;DHT22;35149;51.196;6.204;2023-08-01T12:39:29;20.80;84.40
49132;DHT22;35149;51.196;6.204;2023-08-01T12:41:55;20.90;84.50
49132;DHT22;35149;51.196;6.204;2023-08-01T12:44:22;21.00;84.30
49132;DHT22;35149;51.196;6.204;2023-08-01T12:46:49;21.20;85.00
49132;DHT22;35149;51.196;6.204;2023-08-01T12:49:18;21.30;84.70
49132;DHT22;35149;51.196;6.204;2023-08-01T12:51:45;21.50;84.00
49132;DHT22;35149;51.196;6.204;2023-08-01T12:54:12;21.60;82.10
49132;DHT22;35149;51.196;6.204;2023-08-01T12:56:39;21.70;81.00
49132;DHT22;35149;51.196;6.204;2023-08-01T12:59:06;21.80;80.30
49132;DHT22;35149;51.196;6.204;2023-08-01T13:01:33;21.80;79.10
49132;DHT22;35149;51.196;6.204;2023-08-01T13:04:00;21.80;78.50
49132;DHT22;35149;51.196;6.204;2023-08-01T13:06:26;21.80;78.20
49132;DHT22;35149;51.196;6.204;2023-08-01T13:08:53;21.80;77.30
49132;DHT22;35149;51.196;6.204;2023-08-01T13:11:20;21.80;77.80
49132;DHT22;35149;51.196;6.204;2023-08-01T13:13:46;21.80;78.50
49132;DHT22;35149;51.196;6.204;2023-08-01T13:16:13;21.90;78.10
49132;DHT22;35149;51.196;6.204;2023-08-01T13:18:40;22.00;78.00
49132;DHT22;35149;51.196;6.204;2023-08-01T13:21:11;22.00;77.90
49132;DHT22;35149;51.196;6.204;2023-08-01T13:23:38;22.20;78.30
49132;DHT22;35149;51.196;6.204;2023-08-01T13:26:05;22.30;77.00
49132;DHT22;35149;51.196;6.204;2023-08-01T13:28:32;22.40;76.20
49132;DHT22;35149;51.196;6.204;2023-08-01T13:31:06;22.60;76.00
49132;DHT22;35149;51.196;6.204;2023-08-01T13:33:34;22.80;76.00
49132;DHT22;35149;51.196;6.204;2023-08-01T13:36:00;23.00;76.30
49132;DHT22;35149;51.196;6.204;2023-08-01T13:38:29;23.10;74.00
49132;DHT22;35149;51.196;6.204;2023-08-01T13:41:01;23.20;71.40
49132;DHT22;35149;51.196;6.204;2023-08-01T13:43:28;23.30;69.40
49132;DHT22;35149;51.196;6.204;2023-08-01T13:45:55;23.30;70.20
49132;DHT22;35149;51.196;6.204;2023-08-01T13:48:22;23.20;72.60
49132;DHT22;35149;51.196;6.204;2023-08-01T13:50:48;23.10;70.60
49132;DHT22;35149;51.196;6.204;2023-08-01T13:53:15;23.20;72.80
49132;DHT22;35149;51.196;6.204;2023-08-01T13:55:43;23.40;74.00
49132;DHT22;35149;51.196;6.204;2023-08-01T13:58:09;23.70;74.30
49132;DHT22;35149;51.196;6.204;2023-08-01T14:00:39;24.10;72.50
49132;DHT22;35149;51.196;6.204;2023-08-01T14:03:05;24.60;71.80
49132;DHT22;35149;51.196;6.204;2023-08-01T14:05:32;25.20;72.20
49132;DHT22;35149;51.196;6.204;2023-08-01T14:07:59;25.90;70.10
49132;DHT22;35149;51.196;6.204;2023-08-01T14:10:30;26.60;67.20
49132;DHT22;35149;51.196;6.204;2023-08-01T14:12:57;27.10;63.60
49132;DHT22;35149;51.196;6.204;2023-08-01T14:15:24;27.40;60.30
49132;DHT22;35149;51.196;6.204;2023-08-01T14:17:50;27.40;57.50
49132;DHT22;35149;51.196;6.204;2023-08-01T14:20:19;27.30;56.90
49132;DHT22;35149;51.196;6.204;2023-08-01T14:22:46;27.20;57.30
49132;DHT22;35149;51.196;6.204;2023-08-01T14:25:13;27.10;58.60
49132;DHT22;35149;51.196;6.204;2023-08-01T14:27:39;27.20;58.20
49132;DHT22;35149;51.196;6.204;2023-08-01T14:30:06;27.30;57.50
49132;DHT22;35149;51.196;6.204;2023-08-01T14:32:37;27.50;56.40
49132;DHT22;35149;51.196;6.204;2023-08-01T14:35:04;27.80;58.60
49132;DHT22;35149;51.196;6.204;2023-08-01T14:37:31;28.30;57.90
49132;DHT22;35149;51.196;6.204;2023-08-01T14:39:58;28.90;56.70
49132;DHT22;35149;51.196;6.204;2023-08-01T14:42:24;29.40;55.20
49132;DHT22;35149;51.196;6.204;2023-08-01T14:44:52;29.80;51.50
49132;DHT22;35149;51.196;6.204;2023-08-01T14:47:20;29.90;49.50
49132;DHT22;35149;51.196;6.204;2023-08-01T14:49:49;29.80;47.90
49132;DHT22;35149;51.196;6.204;2023-08-01T14:52:18;29.50;47.80
49132;DHT22;35149;51.196;6.204;2023-08-01T14:54:51;29.10;48.00
49132;DHT22;35149;51.196;6.204;2023-08-01T14:57:17;28.70;48.50
49132;DHT22;35149;51.196;6.204;2023-08-01T14:59:45;28.40;50.30
49132;DHT22;35149;51.196;6.204;2023-08-01T15:02:11;28.40;51.40
49132;DHT22;35149;51.196;6.204;2023-08-01T15:04:38;28.70;53.00
49132;DHT22;35149;51.196;6.204;2023-08-01T15:07:06;29.10;53.10
49132;DHT22;35149;51.196;6.204;2023-08-01T15:09:33;29.50;50.30
49132;DHT22;35149;51.196;6.204;2023-08-01T15:12:00;29.60;49.20
49132;DHT22;35149;51.196;6.204;2023-08-01T15:14:27;29.60;48.00
49132;DHT22;35149;51.196;6.204;2023-08-01T15:16:56;29.50;47.60
49132;DHT22;35149;51.196;6.204;2023-08-01T15:19:23;29.20;47.20
49132;DHT22;35149;51.196;6.204;2023-08-01T15:21:49;28.80;46.30
49132;DHT22;35149;51.196;6.204;2023-08-01T15:24:16;28.30;46.50
49132;DHT22;35149;51.196;6.204;2023-08-01T15:26:43;27.90;46.80
49132;DHT22;35149;51.196;6.204;2023-08-01T15:29:10;27.50;47.30
49132;DHT22;35149;51.196;6.204;2023-08-01T15:31:36;27.20;49.10
49132;DHT22;35149;51.196;6.204;2023-08-01T15:34:03;27.00;50.30
49132;DHT22;35149;51.196;6.204;2023-08-01T15:36:30;27.00;51.10